createdAt,value
2019-06-20T00:00:51.817Z,18.50
2019-06-20T00:03:20.956Z,27.47
2019-06-20T00:05:49.962Z,25.57
2019-06-20T00:08:18.817Z,23.60
2019-06-20T00:10:48.714Z,20.23
2019-06-20T00:13:17.579Z,28.07
2019-06-20T00:15:46.560Z,19.97
2019-06-20T00:18:15.587Z,14.43
2019-06-20T00:20:44.489Z,19.60
2019-06-20T00:23:13.362Z,18.90
2019-06-20T00:25:42.292Z,8.93
2019-06-20T00:28:11.195Z,19.30
2019-06-20T00:30:40.598Z,14.13
2019-06-20T00:33:09.457Z,22.20
2019-06-20T00:35:38.718Z,6.57
2019-06-20T00:38:07.546Z,14.60
2019-06-20T00:40:36.613Z,20.23
2019-06-20T00:43:16.780Z,21.67
2019-06-20T00:45:36.206Z,22.87
2019-06-20T00:48:05.222Z,25.23
2019-06-20T00:50:34.515Z,18.43
2019-06-20T00:53:03.512Z,20.77
2019-06-20T00:55:32.526Z,6.57
2019-06-20T00:58:01.530Z,21.63
2019-06-20T01:00:30.341Z,6.87
2019-06-20T01:02:59.207Z,25.67
2019-06-20T01:05:28.119Z,27.87
2019-06-20T01:07:57.106Z,28.80
2019-06-20T01:10:26.168Z,29.33
2019-06-20T01:12:55.038Z,29.70
2019-06-20T01:15:24.017Z,30.13
2019-06-20T01:17:53.051Z,28.97
2019-06-20T01:20:22.025Z,27.90
2019-06-20T01:22:51.019Z,17.27
2019-06-20T01:25:37.239Z,5.80
2019-06-20T01:28:06.528Z,27.67
2019-06-20T01:30:35.580Z,17.20
2019-06-20T01:33:04.793Z,26.53
2019-06-20T01:35:33.854Z,5.03
2019-06-20T01:38:02.917Z,13.23
2019-06-20T01:40:31.936Z,17.63
2019-06-20T01:43:00.918Z,22.90
2019-06-20T01:45:29.971Z,17.03
2019-06-20T01:47:59.107Z,17.07
2019-06-20T01:50:28.146Z,4.87
2019-06-20T01:52:57.215Z,7.47
2019-06-20T01:55:26.244Z,4.50
2019-06-20T01:57:55.112Z,22.63
2019-06-20T02:00:44.037Z,18.77
2019-06-20T02:03:13.746Z,24.03
2019-06-20T02:05:42.966Z,24.57
2019-06-20T02:08:11.995Z,18.77
2019-06-20T02:10:40.938Z,23.67
2019-06-20T02:13:10.091Z,4.87
2019-06-20T02:15:39.052Z,16.27
2019-06-20T02:18:08.196Z,19.77
2019-06-20T02:20:39.282Z,24.27
2019-06-20T02:23:08.769Z,26.20
2019-06-20T02:25:37.913Z,27.10
2019-06-20T02:28:06.937Z,25.43
2019-06-20T02:30:36.176Z,15.83
2019-06-20T02:33:05.174Z,25.67
2019-06-20T02:35:34.197Z,27.67
2019-06-20T02:38:03.082Z,28.03
2019-06-20T02:40:32.021Z,25.73
2019-06-20T02:43:02.228Z,22.63
2019-06-20T02:45:31.230Z,29.60
2019-06-20T02:48:00.280Z,31.27
2019-06-20T02:50:29.398Z,29.40
2019-06-20T02:52:58.395Z,30.50
2019-06-20T02:55:27.439Z,32.17
2019-06-20T02:57:56.506Z,31.60
2019-06-20T03:00:36.788Z,34.57
2019-06-20T03:03:05.777Z,34.47
2019-06-20T03:05:34.606Z,32.93
2019-06-20T03:08:04.028Z,27.00
2019-06-20T03:10:33.036Z,34.30
2019-06-20T03:13:02.049Z,35.37
2019-06-20T03:15:30.967Z,17.47
2019-06-20T03:17:59.920Z,35.47
2019-06-20T03:20:28.939Z,35.47
2019-06-20T03:22:57.794Z,34.77
2019-06-20T03:25:26.812Z,30.03
2019-06-20T03:27:55.834Z,35.43
2019-06-20T03:30:25.352Z,35.53
2019-06-20T03:32:54.295Z,32.10
2019-06-20T03:35:23.431Z,29.97
2019-06-20T03:37:52.413Z,35.47
2019-06-20T03:40:21.440Z,23.47
2019-06-20T03:42:50.363Z,34.70
2019-06-20T03:45:19.467Z,25.33
2019-06-20T03:47:48.384Z,34.73
2019-06-20T03:50:17.499Z,35.00
2019-06-20T03:52:49.418Z,34.67
2019-06-20T03:55:18.429Z,35.30
2019-06-20T03:57:47.418Z,36.00
2019-06-20T04:00:16.606Z,35.97
2019-06-20T04:02:45.598Z,36.77
2019-06-20T04:05:14.622Z,35.10
2019-06-20T04:07:43.511Z,22.97
2019-06-20T04:10:12.470Z,13.73
2019-06-20T04:12:41.404Z,15.73
2019-06-20T04:15:20.621Z,29.97
2019-06-20T04:17:49.771Z,7.10
2019-06-20T04:20:18.963Z,20.27
2019-06-20T04:22:48.093Z,30.23
2019-06-20T04:25:17.251Z,33.23
2019-06-20T04:27:46.264Z,31.23
2019-06-20T04:30:15.480Z,32.20
2019-06-20T04:32:44.486Z,19.47
2019-06-20T04:35:13.593Z,13.13
2019-06-20T04:37:42.652Z,21.77
2019-06-20T04:40:12.058Z,8.77
2019-06-20T04:42:41.126Z,26.60
2019-06-20T04:45:35.292Z,27.47
2019-06-20T04:48:00.777Z,22.47
2019-06-20T04:50:29.711Z,17.23
2019-06-20T04:52:58.623Z,21.23
2019-06-20T04:55:27.660Z,19.40
2019-06-20T04:57:56.668Z,13.13
2019-06-20T05:00:25.690Z,16.70
2019-06-20T05:02:54.682Z,9.43
2019-06-20T05:05:23.676Z,17.73
2019-06-20T05:07:52.725Z,17.57
2019-06-20T05:10:21.752Z,15.93
2019-06-20T05:12:50.959Z,14.93
2019-06-20T05:15:20.216Z,13.40
2019-06-20T05:17:49.334Z,13.60
2019-06-20T05:20:18.395Z,12.57
2019-06-20T05:22:49.131Z,6.23
2019-06-20T05:25:18.218Z,11.50
2019-06-20T05:27:47.327Z,10.03
2019-06-20T05:30:16.526Z,6.97
2019-06-20T05:32:45.465Z,9.10
2019-06-20T05:35:14.493Z,9.57
2019-06-20T05:37:43.466Z,10.20
2019-06-20T05:40:12.933Z,11.53
2019-06-20T05:42:41.966Z,12.20
2019-06-20T05:45:11.281Z,12.30
2019-06-20T05:47:40.244Z,7.13
2019-06-20T05:50:09.357Z,10.10
2019-06-20T05:52:38.282Z,8.53
2019-06-20T05:55:08.034Z,6.10
2019-06-20T05:57:37.028Z,5.03
2019-06-20T06:00:08.378Z,9.57
2019-06-20T06:02:37.887Z,11.10
2019-06-20T06:05:07.747Z,4.47
2019-06-20T06:07:36.692Z,11.73
2019-06-20T06:10:06.959Z,4.43
2019-06-20T06:12:36.341Z,11.70
2019-06-20T06:15:06.395Z,9.77
2019-06-20T06:17:36.414Z,8.27
2019-06-20T06:20:05.899Z,11.83
2019-06-20T06:22:34.940Z,8.53
2019-06-20T06:25:04.141Z,7.33
2019-06-20T06:27:33.117Z,8.83
2019-06-20T06:30:02.149Z,9.53
2019-06-20T06:32:40.003Z,8.27
2019-06-20T06:35:01.649Z,8.57
2019-06-20T06:37:30.998Z,8.47
2019-06-20T06:40:00.018Z,8.90
2019-06-20T06:42:29.009Z,8.27
2019-06-20T06:44:58.022Z,7.87
2019-06-20T06:47:27.041Z,8.00
2019-06-20T06:49:55.994Z,8.27
2019-06-20T06:52:24.926Z,4.50
2019-06-20T06:54:53.923Z,8.63
2019-06-20T06:57:22.971Z,9.60
2019-06-20T06:59:51.869Z,10.87
2019-06-20T07:02:20.904Z,10.50
2019-06-20T07:04:49.869Z,11.93
2019-06-20T07:07:18.948Z,14.10
2019-06-20T07:09:47.948Z,15.30
2019-06-20T07:12:16.974Z,16.17
2019-06-20T07:14:46.043Z,14.57
2019-06-20T07:17:14.986Z,17.93
2019-06-20T07:19:43.957Z,14.73
2019-06-20T07:22:12.806Z,18.80
2019-06-20T07:24:41.864Z,20.63
2019-06-20T07:27:10.811Z,19.20
2019-06-20T07:29:39.701Z,20.53
2019-06-20T07:32:08.623Z,20.50
2019-06-20T07:34:37.581Z,18.27
2019-06-20T07:37:06.503Z,22.23
2019-06-20T07:39:35.449Z,21.30
2019-06-20T07:42:04.435Z,18.97
2019-06-20T07:44:33.303Z,17.57
2019-06-20T07:47:16.693Z,17.63
2019-06-20T07:49:32.822Z,19.97
2019-06-20T07:52:01.796Z,19.53
2019-06-20T07:54:30.896Z,19.20
2019-06-20T07:56:59.779Z,18.33
2019-06-20T07:59:28.698Z,18.97
2019-06-20T08:01:57.711Z,15.93
2019-06-20T08:04:26.750Z,20.13
2019-06-20T08:06:55.829Z,20.97
2019-06-20T08:09:24.890Z,20.47
2019-06-20T08:11:53.814Z,20.37
2019-06-20T08:14:22.788Z,20.70
2019-06-20T08:16:51.746Z,19.90
2019-06-20T08:19:20.868Z,20.57
2019-06-20T08:21:49.886Z,21.03
2019-06-20T08:24:18.830Z,20.40
2019-06-20T08:26:47.798Z,19.43
2019-06-20T08:29:21.135Z,18.07
2019-06-20T08:31:47.567Z,18.90
2019-06-20T08:34:16.566Z,18.60
2019-06-20T08:36:45.770Z,17.63
2019-06-20T08:39:14.688Z,15.77
2019-06-20T08:41:43.599Z,16.43
2019-06-20T08:44:12.670Z,14.47
2019-06-20T08:46:41.712Z,14.27
2019-06-20T08:49:10.738Z,13.40
2019-06-20T08:51:39.770Z,10.83
2019-06-20T08:54:08.730Z,12.70
2019-06-20T08:56:37.757Z,14.13
2019-06-20T08:59:06.958Z,11.30
2019-06-20T09:01:35.966Z,12.07
2019-06-20T09:04:05.408Z,12.23
2019-06-20T09:06:34.344Z,12.83
2019-06-20T09:09:04.466Z,10.87
2019-06-20T09:11:33.882Z,10.27
2019-06-20T09:14:04.090Z,10.10
2019-06-20T09:16:33.383Z,8.03
2019-06-20T09:19:02.628Z,5.33
2019-06-20T09:21:31.678Z,5.43
2019-06-20T09:24:00.618Z,4.03
2019-06-20T09:26:29.558Z,4.47
2019-06-20T09:28:59.353Z,3.83
2019-06-20T09:31:28.370Z,4.67
2019-06-20T09:34:01.596Z,1.13
2019-06-20T09:36:27.872Z,3.13
2019-06-20T09:38:57.828Z,4.00
2019-06-20T09:41:27.515Z,4.97
2019-06-20T09:43:56.529Z,4.90
2019-06-20T09:46:25.479Z,2.13
2019-06-20T09:48:55.576Z,4.70
2019-06-20T09:51:24.753Z,4.20
2019-06-20T09:53:53.921Z,3.80
2019-06-20T09:56:22.934Z,3.63
2019-06-20T09:58:52.914Z,2.33
2019-06-20T10:01:22.131Z,2.70
2019-06-20T10:03:52.397Z,3.20
2019-06-20T10:06:21.319Z,3.90
2019-06-20T10:08:50.382Z,3.93
2019-06-20T10:11:19.378Z,3.90
2019-06-20T10:13:48.286Z,2.57
2019-06-20T10:16:17.338Z,3.40
2019-06-20T10:18:48.152Z,3.00
2019-06-20T10:21:17.006Z,3.87
2019-06-20T10:23:46.180Z,3.60
2019-06-20T10:26:16.733Z,3.07
2019-06-20T10:28:46.287Z,3.27
2019-06-20T10:31:16.518Z,3.20
2019-06-20T10:33:46.849Z,2.77
2019-06-20T10:36:15.953Z,3.40
2019-06-20T10:38:46.428Z,3.30
2019-06-20T10:41:15.672Z,3.17
2019-06-20T10:43:45.712Z,2.93
2019-06-20T10:46:15.919Z,3.03
2019-06-20T10:48:45.983Z,3.13
2019-06-20T10:51:33.231Z,3.20
2019-06-20T10:54:02.351Z,3.40
2019-06-20T10:56:31.421Z,2.07
2019-06-20T10:59:00.423Z,2.03
2019-06-20T11:01:29.456Z,2.40
2019-06-20T11:03:58.426Z,3.17
2019-06-20T11:06:27.370Z,1.73
2019-06-20T11:08:56.319Z,2.67
2019-06-20T11:11:25.344Z,2.90
2019-06-20T11:13:54.370Z,1.53
2019-06-20T11:16:23.372Z,2.70
2019-06-20T11:18:52.220Z,2.17
2019-06-20T11:21:21.084Z,2.77
2019-06-20T11:23:50.056Z,1.80
2019-06-20T11:26:18.967Z,1.93
2019-06-20T11:28:48.711Z,2.03
2019-06-20T11:31:17.751Z,2.00
2019-06-20T11:33:46.698Z,2.53
2019-06-20T11:36:15.642Z,2.00
2019-06-20T11:38:44.601Z,1.70
2019-06-20T11:41:13.610Z,2.40
2019-06-20T11:43:42.526Z,2.60
2019-06-20T11:46:11.559Z,2.23
2019-06-20T11:48:40.638Z,2.60
2019-06-20T11:51:10.234Z,1.53
2019-06-20T11:53:40.555Z,1.70
2019-06-20T11:56:09.742Z,2.33
2019-06-20T11:58:38.710Z,2.07
2019-06-20T12:01:07.719Z,2.30
2019-06-20T12:03:36.671Z,2.13
2019-06-20T12:06:05.842Z,2.60
2019-06-20T12:08:34.690Z,2.27
2019-06-20T12:11:03.637Z,2.43
2019-06-20T12:13:32.570Z,2.57
2019-06-20T12:16:01.415Z,2.40
2019-06-20T12:18:30.447Z,2.43
2019-06-20T12:20:59.520Z,2.57
2019-06-20T12:23:28.428Z,2.40
2019-06-20T12:25:57.373Z,2.50
2019-06-20T12:28:26.313Z,2.73
2019-06-20T12:30:55.277Z,3.07
2019-06-20T12:33:24.240Z,2.40
2019-06-20T12:35:53.216Z,2.83
2019-06-20T12:38:22.205Z,2.80
2019-06-20T12:40:51.242Z,2.70
2019-06-20T12:43:20.190Z,2.50
2019-06-20T12:45:49.536Z,2.90
2019-06-20T12:48:18.717Z,2.90
2019-06-20T12:50:47.710Z,2.73
2019-06-20T12:53:16.818Z,3.37
2019-06-20T12:55:47.450Z,2.20
2019-06-20T12:58:16.595Z,3.80
2019-06-20T13:00:46.567Z,3.73
2019-06-20T13:03:15.767Z,3.23
2019-06-20T13:05:44.961Z,2.87
2019-06-20T13:08:14.068Z,2.87
2019-06-20T13:10:44.152Z,3.40
2019-06-20T13:13:15.165Z,6.10
2019-06-20T13:15:44.591Z,2.60
2019-06-20T13:18:13.788Z,3.27
2019-06-20T13:20:42.771Z,4.53
2019-06-20T13:23:12.429Z,4.20
2019-06-20T13:25:42.608Z,3.17
2019-06-20T13:28:11.623Z,4.70
2019-06-20T13:30:43.746Z,3.33
2019-06-20T13:33:11.231Z,2.70
2019-06-20T13:35:41.978Z,2.47
2019-06-20T13:38:11.026Z,3.53
2019-06-20T13:40:41.387Z,7.87
2019-06-20T13:43:11.162Z,3.20
2019-06-20T13:45:41.190Z,5.10
2019-06-20T13:48:10.884Z,6.73
2019-06-20T13:50:40.466Z,8.07
2019-06-20T13:53:10.619Z,5.40
2019-06-20T13:55:41.220Z,3.80
2019-06-20T13:58:10.640Z,5.37
2019-06-20T14:00:42.949Z,4.47
2019-06-20T14:03:11.929Z,5.03
2019-06-20T14:05:41.484Z,7.03
2019-06-20T14:08:11.724Z,2.73
2019-06-20T14:10:41.304Z,4.33
2019-06-20T14:13:19.252Z,4.07
2019-06-20T14:15:42.695Z,4.03
2019-06-20T14:18:12.146Z,2.90
2019-06-20T14:20:43.171Z,3.13
2019-06-20T14:23:11.859Z,7.00
2019-06-20T14:25:40.863Z,2.93
2019-06-20T14:28:09.921Z,2.30
2019-06-20T14:30:39.063Z,3.77
2019-06-20T14:33:08.094Z,2.97
2019-06-20T14:35:37.071Z,6.37
2019-06-20T14:38:06.137Z,6.07
2019-06-20T14:40:35.193Z,6.90
2019-06-20T14:43:04.179Z,2.83
2019-06-20T14:45:33.077Z,5.33
2019-06-20T14:48:03.999Z,5.57
2019-06-20T14:50:32.879Z,2.80
2019-06-20T14:53:01.908Z,8.97
2019-06-20T14:55:30.932Z,5.73
2019-06-20T14:57:59.899Z,6.03
2019-06-20T15:00:29.180Z,8.13
2019-06-20T15:02:58.862Z,5.87
2019-06-20T15:05:27.783Z,3.33
2019-06-20T15:07:56.915Z,7.83
2019-06-20T15:10:26.005Z,9.27
2019-06-20T15:12:55.873Z,4.43
2019-06-20T15:15:25.245Z,3.77
2019-06-20T15:17:56.329Z,3.63
2019-06-20T15:20:25.007Z,6.50
2019-06-20T15:22:54.642Z,10.80
2019-06-20T15:25:24.031Z,2.63
2019-06-20T15:27:54.848Z,5.63
2019-06-20T15:30:23.802Z,3.27
2019-06-20T15:33:04.033Z,8.70
2019-06-20T15:35:23.563Z,3.70
2019-06-20T15:37:53.768Z,7.93
2019-06-20T15:40:23.196Z,3.80
2019-06-20T15:42:53.448Z,6.30
2019-06-20T15:45:23.012Z,8.27
2019-06-20T15:47:51.983Z,5.27
2019-06-20T15:50:21.178Z,9.40
2019-06-20T15:52:50.419Z,9.10
2019-06-20T15:55:21.270Z,8.07
2019-06-20T15:57:53.937Z,7.60
2019-06-20T16:00:21.823Z,5.40
2019-06-20T16:03:05.895Z,6.40
2019-06-20T16:05:26.621Z,6.07
2019-06-20T16:07:55.739Z,7.70
2019-06-20T16:10:24.837Z,3.60
2019-06-20T16:12:53.798Z,4.37
2019-06-20T16:15:23.098Z,4.07
2019-06-20T16:17:52.321Z,5.30
2019-06-20T16:20:21.806Z,4.83
2019-06-20T16:22:50.862Z,3.10
2019-06-20T16:25:19.881Z,4.83
2019-06-20T16:27:48.781Z,4.80
2019-06-20T16:30:19.860Z,4.03
2019-06-20T16:32:48.772Z,3.13
2019-06-20T16:35:19.210Z,3.20
2019-06-20T16:37:48.172Z,3.10
2019-06-20T16:40:21.850Z,2.87
2019-06-20T16:42:50.687Z,3.20
2019-06-20T16:45:20.048Z,2.93
2019-06-20T16:47:49.338Z,3.00
2019-06-20T16:50:18.374Z,3.20
2019-06-20T16:52:47.598Z,3.37
2019-06-20T16:55:17.012Z,2.47
2019-06-20T16:57:46.113Z,2.83
2019-06-20T17:00:15.728Z,2.60
2019-06-20T17:02:44.679Z,2.40
2019-06-20T17:05:13.760Z,2.53
2019-06-20T17:07:42.624Z,2.63
2019-06-20T17:10:11.867Z,3.03
2019-06-20T17:12:40.969Z,3.43
2019-06-20T17:15:10.111Z,3.00
2019-06-20T17:17:39.182Z,2.67
2019-06-20T17:20:09.598Z,3.00
2019-06-20T17:22:38.698Z,3.07
2019-06-20T17:25:08.199Z,2.80
2019-06-20T17:27:38.219Z,2.80
2019-06-20T17:30:08.512Z,3.20
2019-06-20T17:32:37.531Z,3.63
2019-06-20T17:35:07.331Z,3.13
2019-06-20T17:37:36.374Z,3.37
2019-06-20T17:40:06.506Z,3.00
2019-06-20T17:42:35.530Z,3.10
2019-06-20T17:45:04.846Z,2.70
2019-06-20T17:47:34.037Z,2.90
2019-06-20T17:50:03.407Z,3.30
2019-06-20T17:52:32.512Z,3.70
2019-06-20T17:55:01.612Z,3.10
2019-06-20T17:57:30.627Z,3.17
2019-06-20T17:59:59.679Z,3.00
2019-06-20T18:02:28.598Z,2.53
2019-06-20T18:04:57.620Z,2.90
2019-06-20T18:07:26.578Z,3.17
2019-06-20T18:09:55.785Z,3.10
2019-06-20T18:12:24.745Z,2.70
2019-06-20T18:14:53.807Z,3.23
2019-06-20T18:17:22.700Z,3.00
2019-06-20T18:19:51.834Z,2.80
2019-06-20T18:22:20.740Z,3.10
2019-06-20T18:24:49.816Z,3.00
2019-06-20T18:27:18.726Z,3.17
2019-06-20T18:29:47.738Z,2.97
2019-06-20T18:32:16.772Z,4.17
2019-06-20T18:35:00.914Z,3.87
2019-06-20T18:37:30.659Z,4.27
2019-06-20T18:39:47.563Z,2.77
2019-06-20T18:42:16.799Z,6.37
2019-06-20T18:44:45.879Z,5.83
2019-06-20T18:47:15.090Z,2.13
2019-06-20T18:49:44.168Z,3.20
2019-06-20T18:52:13.048Z,4.43
2019-06-20T18:54:41.902Z,6.57
2019-06-20T18:57:10.915Z,6.27
2019-06-20T18:59:39.958Z,6.10
2019-06-20T19:02:08.962Z,5.93
2019-06-20T19:04:47.785Z,2.37
2019-06-20T19:07:08.746Z,11.00
2019-06-20T19:09:37.717Z,8.43
2019-06-20T19:12:06.730Z,2.50
2019-06-20T19:14:35.738Z,3.33
2019-06-20T19:17:04.733Z,2.03
2019-06-20T19:19:33.610Z,4.90
2019-06-20T19:22:02.603Z,10.13
2019-06-20T19:24:31.497Z,2.87
2019-06-20T19:27:00.622Z,10.63
2019-06-20T19:29:29.691Z,2.43
2019-06-20T19:31:58.694Z,2.40
2019-06-20T19:34:27.658Z,2.43
2019-06-20T19:36:56.810Z,2.90
2019-06-20T19:39:25.820Z,2.37
2019-06-20T19:41:54.883Z,2.47
2019-06-20T19:44:23.962Z,2.53
2019-06-20T19:46:53.012Z,2.50
2019-06-20T19:49:22.110Z,2.60
2019-06-20T19:51:51.252Z,2.57
2019-06-20T19:54:20.310Z,2.53
2019-06-20T19:56:49.383Z,2.93
2019-06-20T19:59:18.458Z,4.57
2019-06-20T20:01:47.509Z,2.40
2019-06-20T20:04:16.536Z,2.63
2019-06-20T20:06:45.778Z,2.60
2019-06-20T20:09:14.847Z,2.90
2019-06-20T20:11:43.919Z,3.00
2019-06-20T20:14:13.053Z,2.87
2019-06-20T20:16:42.022Z,2.63
2019-06-20T20:19:11.014Z,2.17
2019-06-20T20:21:40.143Z,2.83
2019-06-20T20:24:09.289Z,2.70
2019-06-20T20:26:38.342Z,2.40
2019-06-20T20:29:07.315Z,2.60
2019-06-20T20:31:36.410Z,8.73
2019-06-20T20:34:05.393Z,11.53
2019-06-20T20:36:34.443Z,2.70
2019-06-20T20:39:05.071Z,6.57
2019-06-20T20:41:34.313Z,8.70
2019-06-20T20:44:03.452Z,2.90
2019-06-20T20:46:32.491Z,5.50
2019-06-20T20:49:01.601Z,3.10
2019-06-20T20:51:30.537Z,2.47
2019-06-20T20:53:59.632Z,2.83
2019-06-20T20:56:28.600Z,2.60
2019-06-20T20:58:57.668Z,2.63
2019-06-20T21:01:31.218Z,3.33
2019-06-20T21:04:00.634Z,2.40
2019-06-20T21:06:29.779Z,2.70
2019-06-20T21:08:58.823Z,4.27
2019-06-20T21:11:27.799Z,2.90
2019-06-20T21:13:56.731Z,4.10
2019-06-20T21:16:25.770Z,5.43
2019-06-20T21:18:54.752Z,4.83
2019-06-20T21:21:23.770Z,3.40
2019-06-20T21:23:52.623Z,3.00
2019-06-20T21:26:21.627Z,9.17
2019-06-20T21:28:50.560Z,3.93
2019-06-20T21:31:19.549Z,8.73
2019-06-20T21:33:48.512Z,3.20
2019-06-20T21:36:17.391Z,3.67
2019-06-20T21:38:46.339Z,7.07
2019-06-20T21:41:15.181Z,2.90
2019-06-20T21:43:44.163Z,3.07
2019-06-20T21:46:13.083Z,2.93
2019-06-20T21:48:42.015Z,3.30
2019-06-20T21:51:11.045Z,3.40
2019-06-20T21:53:40.028Z,3.30
2019-06-20T21:56:08.943Z,3.37
2019-06-20T21:58:37.967Z,2.80
2019-06-20T22:01:08.527Z,3.07
2019-06-20T22:03:37.595Z,3.07
2019-06-20T22:06:06.639Z,3.10
2019-06-20T22:08:35.564Z,3.00
2019-06-20T22:11:04.598Z,3.30
2019-06-20T22:13:33.794Z,3.30
2019-06-20T22:16:02.836Z,3.50
2019-06-20T22:18:31.801Z,3.13
2019-06-20T22:21:00.769Z,3.67
2019-06-20T22:23:29.833Z,2.63
2019-06-20T22:25:58.875Z,2.97
2019-06-20T22:28:27.879Z,3.17
2019-06-20T22:30:57.633Z,3.03
2019-06-20T22:33:26.675Z,3.40
2019-06-20T22:35:55.537Z,2.80
2019-06-20T22:38:24.495Z,3.07
2019-06-20T22:40:53.532Z,3.50
2019-06-20T22:43:22.479Z,3.47
2019-06-20T22:45:51.475Z,3.87
2019-06-20T22:48:20.451Z,3.60
2019-06-20T22:50:49.372Z,4.00
2019-06-20T22:53:18.432Z,3.30
2019-06-20T22:55:47.342Z,4.00
2019-06-20T22:58:16.339Z,3.83
2019-06-20T23:00:45.267Z,3.90
2019-06-20T23:03:14.301Z,4.10
2019-06-20T23:05:43.419Z,4.50
2019-06-20T23:08:12.448Z,3.73
2019-06-20T23:10:41.463Z,3.67
2019-06-20T23:13:10.518Z,3.97
2019-06-20T23:15:39.538Z,3.00
2019-06-20T23:18:08.477Z,3.90
2019-06-20T23:20:37.374Z,3.70
2019-06-20T23:23:06.401Z,3.70
2019-06-20T23:25:36.639Z,3.63
2019-06-20T23:28:05.628Z,3.80
2019-06-20T23:30:34.743Z,3.80
2019-06-20T23:33:03.714Z,3.90
2019-06-20T23:35:32.675Z,3.90
2019-06-20T23:38:01.600Z,3.60
2019-06-20T23:40:30.620Z,4.33
2019-06-20T23:42:59.536Z,4.37
2019-06-20T23:45:28.486Z,4.10
2019-06-20T23:47:57.470Z,4.30
2019-06-20T23:50:26.475Z,3.60
2019-06-20T23:53:14.501Z,4.03
2019-06-20T23:55:43.623Z,4.03
2019-06-20T23:58:12.623Z,3.80
